AntlersSmtRWIS Atmospheric Data: 07/12/2019 Summary  Detailed Graphs  Station List

  Temperature     Wind Precipitation Visibility
Timestamp Air Wet
Bulb
Dew-
point
24-hr
Max
24-hr
Min
Relative
Humidity
Atmospheric
Pressure
Avg
Speed
Avg
Dir
Spot
Speed
Spot
Dir
Max
Speed
Max
Dir
  Rate Situation Start End 1 hr 3 hr 6 hr 12 hr 24 hr   Situation
Date Time °F °F °F °F °F % in Hg mph ° mph ° mph ° Y/N in/hr text Date Time Date Time in in in in in mi text
07/12/2019 12:00 AM 71.96 61.88 55.40 92.48 62.96 55.0 Not Reported 0.00 N 0.00 E 0.22 E No 0.000 No Precipitation 06/07/2019 12:50 PM 06/07/2019 12:55 PM 0.000 0.000 0.000 0.000 0.000 Not Reported Not Reported
07/12/2019 12:16 AM 71.78 61.52 55.04 92.48 62.96 55.0 Not Reported 0.67 N 2.46 N 0.89 SE No 0.000 No Precipitation 06/07/2019 12:50 PM 06/07/2019 12:55 PM 0.000 0.000 0.000 0.000 0.000 Not Reported Not Reported
07/12/2019 12:31 AM 71.24 61.52 55.40 92.48 62.96 57.0 Not Reported 0.00 N 0.00 NE 3.13 N No 0.000 No Precipitation 06/07/2019 12:50 PM 06/07/2019 12:55 PM 0.000 0.000 0.000 0.000 0.000 Not Reported Not Reported
07/12/2019 12:46 AM 70.88 61.70 55.94 92.48 62.96 59.0 Not Reported 0.00 NE 0.00 NE 2.01 NE No 0.000 No Precipitation 06/07/2019 12:50 PM 06/07/2019 12:55 PM 0.000 0.000 0.000 0.000 0.000 Not Reported Not Reported
07/12/2019 01:01 AM 71.06 61.52 55.58 92.48 62.96 57.0 Not Reported 1.57 N 1.79 NE 2.46 N No 0.000 No Precipitation 06/07/2019 12:50 PM 06/07/2019 12:55 PM 0.000 0.000 0.000 0.000 0.000 Not Reported Not Reported
07/12/2019 01:15 AM 71.78 61.70 55.58 92.48 62.96 56.0 Not Reported 2.01 NE 0.67 SE 4.25 N No 0.000 No Precipitation 06/07/2019 12:50 PM 06/07/2019 12:55 PM 0.000 0.000 0.000 0.000 0.000 Not Reported Not Reported
07/12/2019 01:34 AM 70.16 60.80 55.22 92.48 62.96 59.0 Not Reported 0.00 SE 0.67 NW 2.01 N No 0.000 No Precipitation 06/07/2019 12:50 PM 06/07/2019 12:55 PM 0.000 0.000 0.000 0.000 0.000 Not Reported Not Reported
07/12/2019 01:45 AM 69.44 60.62 55.22 92.48 62.96 60.0 Not Reported 0.45 N 1.12 NE 1.57 N No 0.000 No Precipitation 06/07/2019 12:50 PM 06/07/2019 12:55 PM 0.000 0.000 0.000 0.000 0.000 Not Reported Not Reported
07/12/2019 02:01 AM 70.70 61.34 55.22 92.48 62.96 57.0 Not Reported 2.91 N 2.68 NW 3.80 NW No 0.000 No Precipitation 06/07/2019 12:50 PM 06/07/2019 12:55 PM 0.000 0.000 0.000 0.000 0.000 Not Reported Not Reported
07/12/2019 02:15 AM 70.16 60.98 55.22 92.48 62.96 59.0 Not Reported 2.01 N 2.46 N 2.68 NW No 0.000 No Precipitation 06/07/2019 12:50 PM 06/07/2019 12:55 PM 0.000 0.000 0.000 0.000 0.000 Not Reported Not Reported
07/12/2019 02:31 AM 69.62 60.80 55.22 92.48 62.96 60.0 Not Reported 0.89 NE 0.45 NW 2.01 N No 0.000 No Precipitation 06/07/2019 12:50 PM 06/07/2019 12:55 PM 0.000 0.000 0.000 0.000 0.000 Not Reported Not Reported
07/12/2019 02:45 AM 70.16 60.98 55.04 92.48 62.96 58.0 Not Reported 3.36 N 3.13 NW 5.59 N No 0.000 No Precipitation 06/07/2019 12:50 PM 06/07/2019 12:55 PM 0.000 0.000 0.000 0.000 0.000 Not Reported Not Reported
07/12/2019 03:01 AM 70.52 60.98 54.86 92.48 62.96 57.0 Not Reported 3.36 N 4.47 N 4.92 NW No 0.000 No Precipitation 06/07/2019 12:50 PM 06/07/2019 12:55 PM 0.000 0.000 0.000 0.000 0.000 Not Reported Not Reported
07/12/2019 03:15 AM 70.16 60.98 55.04 92.48 62.96 58.0 Not Reported 3.58 N 2.46 N 4.70 N No 0.000 No Precipitation 06/07/2019 12:50 PM 06/07/2019 12:55 PM 0.000 0.000 0.000 0.000 0.000 Not Reported Not Reported
07/12/2019 03:31 AM 69.98 60.80 54.86 92.48 62.96 58.0 Not Reported 4.92 NW 3.80 N 5.37 NW No 0.000 No Precipitation 06/07/2019 12:50 PM 06/07/2019 12:55 PM 0.000 0.000 0.000 0.000 0.000 Not Reported Not Reported
07/12/2019 03:45 AM 69.44 60.44 54.86 92.48 62.96 59.0 Not Reported 3.80 N 4.25 N 4.47 N No 0.000 No Precipitation 06/07/2019 12:50 PM 06/07/2019 12:55 PM 0.000 0.000 0.000 0.000 0.000 Not Reported Not Reported
07/12/2019 04:01 AM 68.54 60.08 54.68 92.48 62.96 61.0 Not Reported 3.58 N 4.47 N 4.92 N No 0.000 No Precipitation 06/07/2019 12:50 PM 06/07/2019 12:55 PM 0.000 0.000 0.000 0.000 0.000 Not Reported Not Reported
07/12/2019 04:16 AM 68.90 60.26 54.86 92.48 62.96 60.0 Not Reported 3.13 NW 3.58 N 5.82 N No 0.000 No Precipitation 06/07/2019 12:50 PM 06/07/2019 12:55 PM 0.000 0.000 0.000 0.000 0.000 Not Reported Not Reported
07/12/2019 04:32 AM 68.00 60.08 54.86 92.48 62.96 62.0 Not Reported 3.13 N 2.91 N 5.14 N No 0.000 No Precipitation 06/07/2019 12:50 PM 06/07/2019 12:55 PM 0.000 0.000 0.000 0.000 0.000 Not Reported Not Reported
07/12/2019 04:46 AM 68.18 60.08 54.50 92.48 62.96 60.0 Not Reported 4.25 N 3.58 NW 6.71 NW No 0.000 No Precipitation 06/07/2019 12:50 PM 06/07/2019 12:55 PM 0.000 0.000 0.000 0.000 0.000 Not Reported Not Reported
07/12/2019 05:01 AM 68.36 59.90 54.50 92.48 62.96 61.0 Not Reported 5.37 N 4.25 NW 5.59 N No 0.000 No Precipitation 06/07/2019 12:50 PM 06/07/2019 12:55 PM 0.000 0.000 0.000 0.000 0.000 Not Reported Not Reported
07/12/2019 05:15 AM 68.18 59.90 54.68 92.48 62.96 61.0 Not Reported 4.92 N 5.14 N 6.04 N No 0.000 No Precipitation 06/07/2019 12:50 PM 06/07/2019 12:55 PM 0.000 0.000 0.000 0.000 0.000 Not Reported Not Reported
07/12/2019 05:32 AM 66.92 59.36 54.32 92.48 62.96 63.0 Not Reported 3.80 N 4.03 N 7.16 N No 0.000 No Precipitation 06/07/2019 12:50 PM 06/07/2019 12:55 PM 0.000 0.000 0.000 0.000 0.000 Not Reported Not Reported
07/12/2019 05:47 AM 67.28 59.54 54.32 92.48 62.96 62.0 Not Reported 4.03 N 3.58 N 4.70 N No 0.000 No Precipitation 06/07/2019 12:50 PM 06/07/2019 12:55 PM 0.000 0.000 0.000 0.000 0.000 Not Reported Not Reported
07/12/2019 06:00 AM 67.82 59.72 54.32 92.48 62.96 62.0 Not Reported 4.92 N 4.47 N 6.71 N No 0.000 No Precipitation 06/07/2019 12:50 PM 06/07/2019 12:55 PM 0.000 0.000 0.000 0.000 0.000 Not Reported Not Reported
07/12/2019 06:17 AM 66.74 59.18 54.14 92.48 62.96 63.0 Not Reported 4.92 NW 5.82 N 6.71 N No 0.000 No Precipitation 06/07/2019 12:50 PM 06/07/2019 12:55 PM 0.000 0.000 0.000 0.000 0.000 Not Reported Not Reported
07/12/2019 06:30 AM 67.46 59.36 54.14 92.48 62.96 62.0 Not Reported 4.70 N 4.25 N 6.26 NW No 0.000 No Precipitation 06/07/2019 12:50 PM 06/07/2019 12:55 PM 0.000 0.000 0.000 0.000 0.000 Not Reported Not Reported
07/12/2019 06:49 AM 67.10 59.36 53.96 92.48 62.96 62.0 Not Reported 5.59 N 4.03 N 6.49 N No 0.000 No Precipitation 06/07/2019 12:50 PM 06/07/2019 12:55 PM 0.000 0.000 0.000 0.000 0.000 Not Reported Not Reported
07/12/2019 07:01 AM 66.20 59.00 54.14 92.48 62.96 65.0 Not Reported 3.80 N 3.80 N 5.14 N No 0.000 No Precipitation 06/07/2019 12:50 PM 06/07/2019 12:55 PM 0.000 0.000 0.000 0.000 0.000 Not Reported Not Reported
07/12/2019 07:15 AM 66.20 59.00 54.32 92.48 62.96 65.0 Not Reported 5.37 N 6.26 N 5.14 N No 0.000 No Precipitation 06/07/2019 12:50 PM 06/07/2019 12:55 PM 0.000 0.000 0.000 0.000 0.000 Not Reported Not Reported
07/12/2019 07:30 AM 66.38 59.18 54.32 92.48 63.86 65.0 Not Reported 2.24 NW 3.80 NW 6.49 N No 0.000 No Precipitation 06/07/2019 12:50 PM 06/07/2019 12:55 PM 0.000 0.000 0.000 0.000 0.000 Not Reported Not Reported
07/12/2019 07:46 AM 67.10 59.36 54.14 92.48 63.86 63.0 Not Reported 7.61 NW 6.71 N 7.16 NW No 0.000 No Precipitation 06/07/2019 12:50 PM 06/07/2019 12:55 PM 0.000 0.000 0.000 0.000 0.000 Not Reported Not Reported
07/12/2019 08:01 AM 66.74 59.36 54.50 92.48 64.04 64.0 Not Reported 6.26 N 2.01 NW 7.61 N No 0.000 No Precipitation 06/07/2019 12:50 PM 06/07/2019 12:55 PM 0.000 0.000 0.000 0.000 0.000 Not Reported Not Reported
07/12/2019 08:15 AM 67.46 59.54 54.50 92.48 64.94 63.0 Not Reported 4.03 NW 5.14 N 5.82 NE No 0.000 No Precipitation 06/07/2019 12:50 PM 06/07/2019 12:55 PM 0.000 0.000 0.000 0.000 0.000 Not Reported Not Reported
07/12/2019 08:34 AM 69.44 60.44 54.50 92.48 65.84 59.0 Not Reported 6.26 N 7.83 N 6.93 N No 0.000 No Precipitation 06/07/2019 12:50 PM 06/07/2019 12:55 PM 0.000 0.000 0.000 0.000 0.000 Not Reported Not Reported
07/12/2019 08:49 AM 71.60 61.34 55.04 92.48 65.84 55.0 Not Reported 5.59 N 4.47 N 7.83 N No 0.000 No Precipitation 06/07/2019 12:50 PM 06/07/2019 12:55 PM 0.000 0.000 0.000 0.000 0.000 Not Reported Not Reported
07/12/2019 09:00 AM 72.86 61.88 55.22 92.48 65.84 53.0 Not Reported 4.70 NW 5.37 N 7.38 NW No 0.000 No Precipitation 06/07/2019 12:50 PM 06/07/2019 12:55 PM 0.000 0.000 0.000 0.000 0.000 Not Reported Not Reported
07/12/2019 09:15 AM 74.84 62.78 55.58 92.48 65.84 51.0 Not Reported 5.37 N 4.25 N 6.71 NW No 0.000 No Precipitation 06/07/2019 12:50 PM 06/07/2019 12:55 PM 0.000 0.000 0.000 0.000 0.000 Not Reported Not Reported
07/12/2019 09:31 AM 74.66 62.96 55.58 92.48 65.84 51.0 Not Reported 5.14 N 4.70 N 6.71 N No 0.000 No Precipitation 06/07/2019 12:50 PM 06/07/2019 12:55 PM 0.000 0.000 0.000 0.000 0.000 Not Reported Not Reported
07/12/2019 09:47 AM 77.36 64.04 55.76 92.48 65.84 46.0 Not Reported 4.47 N 4.03 NW 6.04 N No 0.000 No Precipitation 06/07/2019 12:50 PM 06/07/2019 12:55 PM 0.000 0.000 0.000 0.000 0.000 Not Reported Not Reported
07/12/2019 10:00 AM 78.80 64.58 56.12 92.48 65.84 45.0 Not Reported 2.24 N 3.58 N 6.26 N No 0.000 No Precipitation 06/07/2019 12:50 PM 06/07/2019 12:55 PM 0.000 0.000 0.000 0.000 0.000 Not Reported Not Reported
07/12/2019 10:15 AM 79.16 64.58 55.76 92.48 65.84 44.0 Not Reported 3.58 NE 4.70 NW 5.82 N No 0.000 No Precipitation 06/07/2019 12:50 PM 06/07/2019 12:55 PM 0.000 0.000 0.000 0.000 0.000 Not Reported Not Reported
07/12/2019 10:31 AM 80.06 64.76 55.58 92.48 65.84 43.0 Not Reported 3.80 N 3.36 N 5.14 NW No 0.000 No Precipitation 06/07/2019 12:50 PM 06/07/2019 12:55 PM 0.000 0.000 0.000 0.000 0.000 Not Reported Not Reported
07/12/2019 10:45 AM 80.06 64.58 55.40 92.48 65.84 42.0 Not Reported 3.58 N 2.91 N 5.82 N No 0.000 No Precipitation 06/07/2019 12:50 PM 06/07/2019 12:55 PM 0.000 0.000 0.000 0.000 0.000 Not Reported Not Reported
07/12/2019 11:00 AM 80.96 65.30 56.30 92.48 65.84 42.0 Not Reported 2.46 NE 1.79 N 4.47 N No 0.000 No Precipitation 06/07/2019 12:50 PM 06/07/2019 12:55 PM 0.000 0.000 0.000 0.000 0.000 Not Reported Not Reported
07/12/2019 11:15 AM 82.22 65.30 55.22 92.48 65.84 39.0 Not Reported 2.68 N 2.01 N 4.25 N No 0.000 No Precipitation 06/07/2019 12:50 PM 06/07/2019 12:55 PM 0.000 0.000 0.000 0.000 0.000 Not Reported Not Reported
07/12/2019 11:31 AM 84.02 65.66 54.68 92.48 65.84 36.0 Not Reported 2.24 N 0.00 NE 3.13 N No 0.000 No Precipitation 06/07/2019 12:50 PM 06/07/2019 12:55 PM 0.000 0.000 0.000 0.000 0.000 Not Reported Not Reported
07/12/2019 11:45 AM 85.82 66.74 55.76 92.48 65.84 35.0 Not Reported 0.89 NW 3.13 E 4.03 N No 0.000 No Precipitation 06/07/2019 12:50 PM 06/07/2019 12:55 PM 0.000 0.000 0.000 0.000 0.000 Not Reported Not Reported
07/12/2019 12:00 PM 87.62 68.18 57.56 92.48 65.84 36.0 Not Reported 1.57 W 3.80 S 3.36 S No 0.000 No Precipitation 06/07/2019 12:50 PM 06/07/2019 12:55 PM 0.000 0.000 0.000 0.000 0.000 Not Reported Not Reported
07/12/2019 12:15 PM 85.82 68.54 59.36 92.48 65.84 40.0 Not Reported 3.58 S 3.80 SE 4.47 SW No 0.000 No Precipitation 06/07/2019 12:50 PM 06/07/2019 12:55 PM 0.000 0.000 0.000 0.000 0.000 Not Reported Not Reported
07/12/2019 12:31 PM 87.62 67.82 56.84 92.48 65.84 35.0 Not Reported 3.13 SE 0.89 SE 4.92 SE No 0.000 No Precipitation 06/07/2019 12:50 PM 06/07/2019 12:55 PM 0.000 0.000 0.000 0.000 0.000 Not Reported Not Reported
07/12/2019 12:46 PM 87.26 68.00 57.56 92.48 65.84 36.0 Not Reported 3.13 SE 2.46 NE 4.70 E No 0.000 No Precipitation 06/07/2019 12:50 PM 06/07/2019 12:55 PM 0.000 0.000 0.000 0.000 0.000 Not Reported Not Reported
07/12/2019 01:01 PM 88.52 69.26 59.18 92.48 65.84 37.0 Not Reported 0.67 S 1.34 S 5.37 SW No 0.000 No Precipitation 06/07/2019 12:50 PM 06/07/2019 12:55 PM 0.000 0.000 0.000 0.000 0.000 Not Reported Not Reported
07/12/2019 01:17 PM 89.78 68.36 56.66 92.48 65.84 32.0 Not Reported 2.01 S 2.01 S 5.37 S No 0.000 No Precipitation 06/07/2019 12:50 PM 06/07/2019 12:55 PM 0.000 0.000 0.000 0.000 0.000 Not Reported Not Reported
07/12/2019 01:32 PM 88.70 67.82 55.94 92.48 65.84 32.0 Not Reported 4.47 SE 6.04 SE 8.28 SE No 0.000 No Precipitation 06/07/2019 12:50 PM 06/07/2019 12:55 PM 0.000 0.000 0.000 0.000 0.000 Not Reported Not Reported
07/12/2019 01:45 PM 88.88 68.72 57.56 92.48 65.84 34.0 Not Reported 2.68 SW 7.61 SE 6.04 SE No 0.000 No Precipitation 06/07/2019 12:50 PM 06/07/2019 12:55 PM 0.000 0.000 0.000 0.000 0.000 Not Reported Not Reported
07/12/2019 02:01 PM 90.14 69.08 57.74 92.48 65.84 33.0 Not Reported 5.14 SE 2.68 E 9.40 SE No 0.000 No Precipitation 06/07/2019 12:50 PM 06/07/2019 12:55 PM 0.000 0.000 0.000 0.000 0.000 Not Reported Not Reported
07/12/2019 02:15 PM 91.04 69.08 57.02 92.48 65.84 31.0 Not Reported 5.37 SE 8.28 SE 5.82 SE No 0.000 No Precipitation 06/07/2019 12:50 PM 06/07/2019 12:55 PM 0.000 0.000 0.000 0.000 0.000 Not Reported Not Reported
07/12/2019 02:32 PM 90.68 68.54 56.48 92.48 65.84 31.0 Not Reported 3.58 SE 5.14 SE 8.50 SE No 0.000 No Precipitation 06/07/2019 12:50 PM 06/07/2019 12:55 PM 0.000 0.000 0.000 0.000 0.000 Not Reported Not Reported
07/12/2019 02:46 PM 92.30 69.62 57.56 92.84 65.84 31.0 Not Reported 4.03 E 3.36 SE 6.04 SE No 0.000 No Precipitation 06/07/2019 12:50 PM 06/07/2019 12:55 PM 0.000 0.000 0.000 0.000 0.000 Not Reported Not Reported
07/12/2019 03:02 PM 91.58 68.18 54.86 92.84 65.84 29.0 Not Reported 6.71 SE 8.05 SE 7.38 SE No 0.000 No Precipitation 06/07/2019 12:50 PM 06/07/2019 12:55 PM 0.000 0.000 0.000 0.000 0.000 Not Reported Not Reported
07/12/2019 03:15 PM 92.84 68.90 55.58 93.20 65.84 28.0 Not Reported 4.70 SE 6.49 SE 8.05 SE No 0.000 No Precipitation 06/07/2019 12:50 PM 06/07/2019 12:55 PM 0.000 0.000 0.000 0.000 0.000 Not Reported Not Reported
07/12/2019 03:30 PM 91.94 68.18 54.68 93.20 65.84 28.0 Not Reported 4.47 SE 4.47 E 10.51 SE No 0.000 No Precipitation 06/07/2019 12:50 PM 06/07/2019 12:55 PM 0.000 0.000 0.000 0.000 0.000 Not Reported Not Reported
07/12/2019 03:47 PM 92.66 68.72 55.22 93.74 65.84 28.0 Not Reported 5.82 SE 7.61 E 7.83 SE No 0.000 No Precipitation 06/07/2019 12:50 PM 06/07/2019 12:55 PM 0.000 0.000 0.000 0.000 0.000 Not Reported Not Reported
07/12/2019 04:02 PM 93.02 68.72 54.86 95.00 65.84 27.0 Not Reported 7.16 SE 6.26 SE 4.70 S No 0.000 No Precipitation 06/07/2019 12:50 PM 06/07/2019 12:55 PM 0.000 0.000 0.000 0.000 0.000 Not Reported Not Reported
07/12/2019 04:15 PM 95.00 69.08 54.50 95.90 65.84 25.0 Not Reported 4.92 SE 1.57 N 8.28 S No 0.000 No Precipitation 06/07/2019 12:50 PM 06/07/2019 12:55 PM 0.000 0.000 0.000 0.000 0.000 Not Reported Not Reported
07/12/2019 04:32 PM 94.28 68.90 54.68 96.62 65.84 26.0 Not Reported 5.82 SE 5.82 SE 7.83 SE No 0.000 No Precipitation 06/07/2019 12:50 PM 06/07/2019 12:55 PM 0.000 0.000 0.000 0.000 0.000 Not Reported Not Reported
07/12/2019 04:45 PM 92.84 68.18 53.78 96.62 65.84 26.0 Not Reported 4.25 S 5.82 SE 8.28 SE No 0.000 No Precipitation 06/07/2019 12:50 PM 06/07/2019 12:55 PM 0.000 0.000 0.000 0.000 0.000 Not Reported Not Reported
07/12/2019 05:01 PM 94.46 68.00 52.34 96.62 65.84 24.0 Not Reported 4.70 SE 9.84 SE 9.40 SE No 0.000 No Precipitation 06/07/2019 12:50 PM 06/07/2019 12:55 PM 0.000 0.000 0.000 0.000 0.000 Not Reported Not Reported
07/12/2019 05:15 PM 94.28 68.18 52.88 96.62 65.84 24.0 Not Reported 4.03 E 4.25 SE 9.84 SE No 0.000 No Precipitation 06/07/2019 12:50 PM 06/07/2019 12:55 PM 0.000 0.000 0.000 0.000 0.000 Not Reported Not Reported
07/12/2019 05:30 PM 95.18 68.54 53.06 96.62 65.84 24.0 Not Reported 7.38 SE 6.26 SE 7.61 SE No 0.000 No Precipitation 06/07/2019 12:50 PM 06/07/2019 12:55 PM 0.000 0.000 0.000 0.000 0.000 Not Reported Not Reported
07/12/2019 05:45 PM 95.18 68.18 52.16 96.62 65.84 23.0 Not Reported 5.82 SE 7.16 SE 10.29 SE No 0.000 No Precipitation 06/07/2019 12:50 PM 06/07/2019 12:55 PM 0.000 0.000 0.000 0.000 0.000 Not Reported Not Reported
07/12/2019 06:00 PM 94.64 67.82 51.62 96.62 65.84 23.0 Not Reported 5.37 SE 3.58 SE 7.38 SE No 0.000 No Precipitation 06/07/2019 12:50 PM 06/07/2019 12:55 PM 0.000 0.000 0.000 0.000 0.000 Not Reported Not Reported
07/12/2019 06:15 PM 93.56 68.00 52.88 96.62 65.84 25.0 Not Reported 1.79 S 1.34 SE 8.28 SE No 0.000 No Precipitation 06/07/2019 12:50 PM 06/07/2019 12:55 PM 0.000 0.000 0.000 0.000 0.000 Not Reported Not Reported
07/12/2019 06:31 PM 93.92 68.18 52.88 96.62 65.84 25.0 Not Reported 3.13 SE 6.04 SE 7.61 SE No 0.000 No Precipitation 06/07/2019 12:50 PM 06/07/2019 12:55 PM 0.000 0.000 0.000 0.000 0.000 Not Reported Not Reported
07/12/2019 06:47 PM 94.10 68.90 54.68 96.62 65.84 26.0 Not Reported 6.49 SE 1.34 S 7.83 E No 0.000 No Precipitation 06/07/2019 12:50 PM 06/07/2019 12:55 PM 0.000 0.000 0.000 0.000 0.000 Not Reported Not Reported
07/12/2019 07:01 PM 94.28 68.54 53.78 96.62 65.84 25.0 Not Reported 5.14 SE 3.80 SE 6.71 E No 0.000 No Precipitation 06/07/2019 12:50 PM 06/07/2019 12:55 PM 0.000 0.000 0.000 0.000 0.000 Not Reported Not Reported
07/12/2019 07:15 PM 93.20 68.18 53.42 96.62 65.84 26.0 Not Reported 1.79 SW 4.92 SE 6.71 SE No 0.000 No Precipitation 06/07/2019 12:50 PM 06/07/2019 12:55 PM 0.000 0.000 0.000 0.000 0.000 Not Reported Not Reported
07/12/2019 07:30 PM 93.20 68.90 55.22 96.62 65.84 27.0 Not Reported 2.46 S 1.79 SE 6.04 SE No 0.000 No Precipitation 06/07/2019 12:50 PM 06/07/2019 12:55 PM 0.000 0.000 0.000 0.000 0.000 Not Reported Not Reported
07/12/2019 07:46 PM 91.94 67.46 52.70 96.62 65.84 26.0 Not Reported 3.80 SE 2.91 SE 4.25 SE No 0.000 No Precipitation 06/07/2019 12:50 PM 06/07/2019 12:55 PM 0.000 0.000 0.000 0.000 0.000 Not Reported Not Reported
07/12/2019 08:00 PM 90.14 69.08 57.74 96.62 65.84 33.0 Not Reported 1.79 S 1.79 S 2.68 SW No 0.000 No Precipitation 06/07/2019 12:50 PM 06/07/2019 12:55 PM 0.000 0.000 0.000 0.000 0.000 Not Reported Not Reported
07/12/2019 08:16 PM 89.06 69.80 60.08 96.62 65.84 37.0 Not Reported 3.13 SE 2.91 SE 3.36 SW No 0.000 No Precipitation 06/07/2019 12:50 PM 06/07/2019 12:55 PM 0.000 0.000 0.000 0.000 0.000 Not Reported Not Reported
07/12/2019 08:30 PM 84.92 67.46 57.56 96.62 65.84 39.0 Not Reported 0.67 S 0.45 SW 2.91 S No 0.000 No Precipitation 06/07/2019 12:50 PM 06/07/2019 12:55 PM 0.000 0.000 0.000 0.000 0.000 Not Reported Not Reported
07/12/2019 08:45 PM 85.10 66.74 56.30 96.62 65.84 37.0 Not Reported 1.79 S 2.68 SE 1.57 S No 0.000 No Precipitation 06/07/2019 12:50 PM 06/07/2019 12:55 PM 0.000 0.000 0.000 0.000 0.000 Not Reported Not Reported
07/12/2019 09:02 PM 84.02 66.92 56.48 96.62 65.84 39.0 Not Reported 2.46 SE 3.58 SE 3.36 S No 0.000 No Precipitation 06/07/2019 12:50 PM 06/07/2019 12:55 PM 0.000 0.000 0.000 0.000 0.000 Not Reported Not Reported
07/12/2019 09:16 PM 82.22 66.56 57.92 96.62 65.84 43.0 Not Reported 2.46 SE 1.34 SE 3.58 SE No 0.000 No Precipitation 06/07/2019 12:50 PM 06/07/2019 12:55 PM 0.000 0.000 0.000 0.000 0.000 Not Reported Not Reported
07/12/2019 09:31 PM 81.32 66.38 58.10 96.62 65.84 45.0 Not Reported 1.79 SE 0.45 S 2.46 S No 0.000 No Precipitation 06/07/2019 12:50 PM 06/07/2019 12:55 PM 0.000 0.000 0.000 0.000 0.000 Not Reported Not Reported
07/12/2019 09:45 PM 79.88 65.84 57.92 96.62 65.84 47.0 Not Reported 0.89 SE 0.67 S 2.01 S No 0.000 No Precipitation 06/07/2019 12:50 PM 06/07/2019 12:55 PM 0.000 0.000 0.000 0.000 0.000 Not Reported Not Reported
07/12/2019 10:04 PM 79.16 65.66 57.92 96.62 65.84 48.0 Not Reported 0.67 SE 0.22 E 2.01 E No 0.000 No Precipitation 06/07/2019 12:50 PM 06/07/2019 12:55 PM 0.000 0.000 0.000 0.000 0.000 Not Reported Not Reported
07/12/2019 10:19 PM 78.62 65.48 57.92 96.62 65.84 48.0 Not Reported 0.00 N 0.00 SE 2.24 SE No 0.000 No Precipitation 06/07/2019 12:50 PM 06/07/2019 12:55 PM 0.000 0.000 0.000 0.000 0.000 Not Reported Not Reported
07/12/2019 10:31 PM 78.80 65.12 57.38 96.62 65.84 47.0 Not Reported 0.22 SE 0.00 W 1.57 S No 0.000 No Precipitation 06/07/2019 12:50 PM 06/07/2019 12:55 PM 0.000 0.000 0.000 0.000 0.000 Not Reported Not Reported
07/12/2019 10:46 PM 78.44 65.12 57.56 96.62 65.84 48.0 Not Reported 1.12 S 0.00 SE 0.22 S No 0.000 No Precipitation 06/07/2019 12:50 PM 06/07/2019 12:55 PM 0.000 0.000 0.000 0.000 0.000 Not Reported Not Reported
07/12/2019 11:01 PM 78.44 64.76 57.02 96.62 65.84 47.0 Not Reported 0.89 SW 0.22 NW 2.01 SE No 0.000 No Precipitation 06/07/2019 12:50 PM 06/07/2019 12:55 PM 0.000 0.000 0.000 0.000 0.000 Not Reported Not Reported
07/12/2019 11:15 PM 78.80 64.76 56.48 96.62 65.84 46.0 Not Reported 0.22 S 0.67 W 2.68 SW No 0.000 No Precipitation 06/07/2019 12:50 PM 06/07/2019 12:55 PM 0.000 0.000 0.000 0.000 0.000 Not Reported Not Reported
07/12/2019 11:30 PM 78.08 64.40 56.30 96.62 65.84 47.0 Not Reported 0.00 SW 0.67 SE 0.67 SW No 0.000 No Precipitation 06/07/2019 12:50 PM 06/07/2019 12:55 PM 0.000 0.000 0.000 0.000 0.000 Not Reported Not Reported
07/12/2019 11:45 PM 77.36 64.22 56.66 96.62 65.84 48.0 Not Reported 0.00 SE 0.00 SE 1.12 SE No 0.000 No Precipitation 06/07/2019 12:50 PM 06/07/2019 12:55 PM 0.000 0.000 0.000 0.000 0.000 Not Reported Not Reported